sensor_id;sensor_type;location;lat;lon;timestamp;temperature;humidity
23540;DHT22;11947;50.810;4.394;2023-12-20T00:00:56;6.70;99.90
23540;DHT22;11947;50.810;4.394;2023-12-20T00:03:22;6.70;99.90
23540;DHT22;11947;50.810;4.394;2023-12-20T00:05:48;6.70;99.90
23540;DHT22;11947;50.810;4.394;2023-12-20T00:08:13;6.60;99.90
23540;DHT22;11947;50.810;4.394;2023-12-20T00:10:39;6.60;99.90
23540;DHT22;11947;50.810;4.394;2023-12-20T00:13:04;6.70;99.90
23540;DHT22;11947;50.810;4.394;2023-12-20T00:15:30;6.70;99.90
23540;DHT22;11947;50.810;4.394;2023-12-20T00:17:56;6.70;99.90
23540;DHT22;11947;50.810;4.394;2023-12-20T00:20:21;6.70;99.90
23540;DHT22;11947;50.810;4.394;2023-12-20T00:22:47;6.80;99.90
23540;DHT22;11947;50.810;4.394;2023-12-20T00:25:12;6.70;99.90
23540;DHT22;11947;50.810;4.394;2023-12-20T00:27:38;6.70;99.90
23540;DHT22;11947;50.810;4.394;2023-12-20T00:30:04;6.70;99.90
23540;DHT22;11947;50.810;4.394;2023-12-20T00:32:30;6.60;99.90
23540;DHT22;11947;50.810;4.394;2023-12-20T00:34:55;6.60;99.90
23540;DHT22;11947;50.810;4.394;2023-12-20T00:37:21;6.70;99.90
23540;DHT22;11947;50.810;4.394;2023-12-20T00:39:47;6.50;99.90
23540;DHT22;11947;50.810;4.394;2023-12-20T00:42:13;6.50;99.90
23540;DHT22;11947;50.810;4.394;2023-12-20T00:44:38;6.50;99.90
23540;DHT22;11947;50.810;4.394;2023-12-20T00:47:04;6.40;99.90
23540;DHT22;11947;50.810;4.394;2023-12-20T00:49:30;6.50;99.90
23540;DHT22;11947;50.810;4.394;2023-12-20T00:51:55;6.40;99.90
23540;DHT22;11947;50.810;4.394;2023-12-20T00:54:21;6.30;99.90
23540;DHT22;11947;50.810;4.394;2023-12-20T00:56:47;6.30;99.90
23540;DHT22;11947;50.810;4.394;2023-12-20T00:59:12;6.30;99.90
23540;DHT22;11947;50.810;4.394;2023-12-20T01:01:38;6.20;99.90
23540;DHT22;11947;50.810;4.394;2023-12-20T01:04:04;6.30;99.90
23540;DHT22;11947;50.810;4.394;2023-12-20T01:06:29;6.30;99.90
23540;DHT22;11947;50.810;4.394;2023-12-20T01:08:55;6.40;99.90
23540;DHT22;11947;50.810;4.394;2023-12-20T01:11:20;6.20;99.90
23540;DHT22;11947;50.810;4.394;2023-12-20T01:13:46;6.30;99.90
23540;DHT22;11947;50.810;4.394;2023-12-20T01:16:12;6.20;99.90
23540;DHT22;11947;50.810;4.394;2023-12-20T01:18:38;6.10;99.90
23540;DHT22;11947;50.810;4.394;2023-12-20T01:21:04;6.10;99.90
23540;DHT22;11947;50.810;4.394;2023-12-20T01:23:30;6.10;99.90
23540;DHT22;11947;50.810;4.394;2023-12-20T01:25:56;6.20;99.90
23540;DHT22;11947;50.810;4.394;2023-12-20T01:28:22;6.00;99.90
23540;DHT22;11947;50.810;4.394;2023-12-20T01:30:47;6.10;99.90
23540;DHT22;11947;50.810;4.394;2023-12-20T01:33:13;5.90;99.90
23540;DHT22;11947;50.810;4.394;2023-12-20T01:35:39;6.10;99.90
23540;DHT22;11947;50.810;4.394;2023-12-20T01:38:04;5.90;99.90
23540;DHT22;11947;50.810;4.394;2023-12-20T01:40:30;6.10;99.90
23540;DHT22;11947;50.810;4.394;2023-12-20T01:45:25;6.00;99.90
23540;DHT22;11947;50.810;4.394;2023-12-20T01:47:51;6.00;99.90
23540;DHT22;11947;50.810;4.394;2023-12-20T01:50:17;5.90;99.90
23540;DHT22;11947;50.810;4.394;2023-12-20T01:52:43;6.00;99.90
23540;DHT22;11947;50.810;4.394;2023-12-20T01:55:10;6.00;99.90
23540;DHT22;11947;50.810;4.394;2023-12-20T01:57:45;6.00;99.90
23540;DHT22;11947;50.810;4.394;2023-12-20T02:00:12;5.90;99.90
23540;DHT22;11947;50.810;4.394;2023-12-20T02:02:40;5.90;99.90
23540;DHT22;11947;50.810;4.394;2023-12-20T02:05:06;5.90;99.90
23540;DHT22;11947;50.810;4.394;2023-12-20T02:07:32;5.90;99.90
23540;DHT22;11947;50.810;4.394;2023-12-20T02:10:00;5.80;99.90
23540;DHT22;11947;50.810;4.394;2023-12-20T02:12:26;6.20;99.90
23540;DHT22;11947;50.810;4.394;2023-12-20T02:14:52;6.00;99.90
23540;DHT22;11947;50.810;4.394;2023-12-20T02:17:17;5.90;99.90
23540;DHT22;11947;50.810;4.394;2023-12-20T02:19:43;6.00;99.90
23540;DHT22;11947;50.810;4.394;2023-12-20T02:22:12;6.00;99.90
23540;DHT22;11947;50.810;4.394;2023-12-20T02:24:38;5.90;99.90
23540;DHT22;11947;50.810;4.394;2023-12-20T02:27:06;6.10;99.90
23540;DHT22;11947;50.810;4.394;2023-12-20T02:29:33;6.20;99.90
23540;DHT22;11947;50.810;4.394;2023-12-20T02:31:59;6.10;99.90
23540;DHT22;11947;50.810;4.394;2023-12-20T02:34:24;6.00;99.90
23540;DHT22;11947;50.810;4.394;2023-12-20T02:36:50;5.90;99.90
23540;DHT22;11947;50.810;4.394;2023-12-20T02:39:16;6.00;99.90
23540;DHT22;11947;50.810;4.394;2023-12-20T02:41:42;5.90;99.90
23540;DHT22;11947;50.810;4.394;2023-12-20T02:44:07;5.80;99.90
23540;DHT22;11947;50.810;4.394;2023-12-20T02:46:33;5.80;99.90
23540;DHT22;11947;50.810;4.394;2023-12-20T02:48:59;5.90;99.90
23540;DHT22;11947;50.810;4.394;2023-12-20T02:51:24;5.80;99.90
23540;DHT22;11947;50.810;4.394;2023-12-20T02:53:50;5.80;99.90
23540;DHT22;11947;50.810;4.394;2023-12-20T02:56:16;5.90;99.90
23540;DHT22;11947;50.810;4.394;2023-12-20T02:58:41;6.10;99.90
23540;DHT22;11947;50.810;4.394;2023-12-20T03:01:07;6.00;99.90
23540;DHT22;11947;50.810;4.394;2023-12-20T03:03:32;5.90;99.90
23540;DHT22;11947;50.810;4.394;2023-12-20T03:05:59;6.00;99.90
23540;DHT22;11947;50.810;4.394;2023-12-20T03:08:25;6.00;99.90
23540;DHT22;11947;50.810;4.394;2023-12-20T03:10:50;6.00;99.90
23540;DHT22;11947;50.810;4.394;2023-12-20T03:13:16;6.10;99.90
23540;DHT22;11947;50.810;4.394;2023-12-20T03:15:42;6.10;99.90
23540;DHT22;11947;50.810;4.394;2023-12-20T03:18:07;6.20;99.90
23540;DHT22;11947;50.810;4.394;2023-12-20T03:20:33;6.30;99.90
23540;DHT22;11947;50.810;4.394;2023-12-20T03:23:03;6.20;99.90
23540;DHT22;11947;50.810;4.394;2023-12-20T03:25:28;6.30;99.90
23540;DHT22;11947;50.810;4.394;2023-12-20T03:27:54;6.30;99.90
23540;DHT22;11947;50.810;4.394;2023-12-20T03:30:20;6.30;99.90
23540;DHT22;11947;50.810;4.394;2023-12-20T03:32:47;6.40;99.90
23540;DHT22;11947;50.810;4.394;2023-12-20T03:35:12;6.50;99.90
23540;DHT22;11947;50.810;4.394;2023-12-20T03:37:38;6.40;99.90
23540;DHT22;11947;50.810;4.394;2023-12-20T03:40:04;6.40;99.90
23540;DHT22;11947;50.810;4.394;2023-12-20T03:42:30;6.30;99.90
23540;DHT22;11947;50.810;4.394;2023-12-20T03:44:56;6.50;99.90
23540;DHT22;11947;50.810;4.394;2023-12-20T03:47:21;6.40;99.90
23540;DHT22;11947;50.810;4.394;2023-12-20T03:49:47;6.40;99.90
23540;DHT22;11947;50.810;4.394;2023-12-20T03:52:13;6.40;99.90
23540;DHT22;11947;50.810;4.394;2023-12-20T03:54:39;6.30;99.90
23540;DHT22;11947;50.810;4.394;2023-12-20T03:57:05;6.20;99.90
23540;DHT22;11947;50.810;4.394;2023-12-20T03:59:35;6.20;99.90
23540;DHT22;11947;50.810;4.394;2023-12-20T04:02:01;6.20;99.90
23540;DHT22;11947;50.810;4.394;2023-12-20T04:04:27;6.00;99.90
23540;DHT22;11947;50.810;4.394;2023-12-20T04:06:53;6.10;99.90
23540;DHT22;11947;50.810;4.394;2023-12-20T04:09:18;6.10;99.90
23540;DHT22;11947;50.810;4.394;2023-12-20T04:11:44;6.20;99.90
23540;DHT22;11947;50.810;4.394;2023-12-20T04:14:10;6.20;99.90
23540;DHT22;11947;50.810;4.394;2023-12-20T04:16:35;6.20;99.90
23540;DHT22;11947;50.810;4.394;2023-12-20T04:19:01;6.20;99.90
23540;DHT22;11947;50.810;4.394;2023-12-20T04:21:28;6.30;99.90
23540;DHT22;11947;50.810;4.394;2023-12-20T04:23:53;6.50;99.90
23540;DHT22;11947;50.810;4.394;2023-12-20T04:26:19;6.30;99.90
23540;DHT22;11947;50.810;4.394;2023-12-20T04:28:45;6.20;99.90
23540;DHT22;11947;50.810;4.394;2023-12-20T04:31:10;6.10;99.90
23540;DHT22;11947;50.810;4.394;2023-12-20T04:33:36;6.20;99.90
23540;DHT22;11947;50.810;4.394;2023-12-20T04:36:02;6.10;99.90
23540;DHT22;11947;50.810;4.394;2023-12-20T04:38:27;6.00;99.90
23540;DHT22;11947;50.810;4.394;2023-12-20T04:40:53;6.10;99.90
23540;DHT22;11947;50.810;4.394;2023-12-20T04:43:18;6.20;99.90
23540;DHT22;11947;50.810;4.394;2023-12-20T04:45:44;6.10;99.90
23540;DHT22;11947;50.810;4.394;2023-12-20T04:48:10;6.30;99.90
23540;DHT22;11947;50.810;4.394;2023-12-20T04:50:35;6.10;99.90
23540;DHT22;11947;50.810;4.394;2023-12-20T04:53:01;6.10;99.90
23540;DHT22;11947;50.810;4.394;2023-12-20T04:55:26;6.20;99.90
23540;DHT22;11947;50.810;4.394;2023-12-20T04:57:52;6.20;99.90
23540;DHT22;11947;50.810;4.394;2023-12-20T05:00:18;6.20;99.90
23540;DHT22;11947;50.810;4.394;2023-12-20T05:02:43;6.20;99.90
23540;DHT22;11947;50.810;4.394;2023-12-20T05:05:09;6.30;99.90
23540;DHT22;11947;50.810;4.394;2023-12-20T05:07:35;6.30;99.90
23540;DHT22;11947;50.810;4.394;2023-12-20T05:10:01;6.30;99.90
23540;DHT22;11947;50.810;4.394;2023-12-20T05:12:26;6.20;99.90
23540;DHT22;11947;50.810;4.394;2023-12-20T05:14:52;6.40;99.90
23540;DHT22;11947;50.810;4.394;2023-12-20T05:17:18;6.40;99.90
23540;DHT22;11947;50.810;4.394;2023-12-20T05:19:45;6.40;99.90
23540;DHT22;11947;50.810;4.394;2023-12-20T05:22:11;6.30;99.90
23540;DHT22;11947;50.810;4.394;2023-12-20T05:24:37;6.40;99.90
23540;DHT22;11947;50.810;4.394;2023-12-20T05:27:02;6.40;99.90
23540;DHT22;11947;50.810;4.394;2023-12-20T05:29:28;6.40;99.90
23540;DHT22;11947;50.810;4.394;2023-12-20T05:31:54;6.20;99.90
23540;DHT22;11947;50.810;4.394;2023-12-20T05:34:19;6.10;99.90
23540;DHT22;11947;50.810;4.394;2023-12-20T05:36:45;6.30;99.90
23540;DHT22;11947;50.810;4.394;2023-12-20T05:39:11;6.30;99.90
23540;DHT22;11947;50.810;4.394;2023-12-20T05:41:37;6.10;99.90
23540;DHT22;11947;50.810;4.394;2023-12-20T05:44:04;6.00;99.90
23540;DHT22;11947;50.810;4.394;2023-12-20T05:46:29;6.10;99.90
23540;DHT22;11947;50.810;4.394;2023-12-20T05:48:55;6.00;99.90
23540;DHT22;11947;50.810;4.394;2023-12-20T05:51:21;6.10;99.90
23540;DHT22;11947;50.810;4.394;2023-12-20T05:53:47;6.00;99.90
23540;DHT22;11947;50.810;4.394;2023-12-20T05:56:15;6.00;99.90
23540;DHT22;11947;50.810;4.394;2023-12-20T05:58:41;5.90;99.90
23540;DHT22;11947;50.810;4.394;2023-12-20T06:01:06;6.00;99.90
23540;DHT22;11947;50.810;4.394;2023-12-20T06:03:34;5.90;99.90
23540;DHT22;11947;50.810;4.394;2023-12-20T06:06:04;5.90;99.90
23540;DHT22;11947;50.810;4.394;2023-12-20T06:08:29;5.90;99.90
23540;DHT22;11947;50.810;4.394;2023-12-20T06:10:55;6.10;99.90
23540;DHT22;11947;50.810;4.394;2023-12-20T06:13:20;5.90;99.90
23540;DHT22;11947;50.810;4.394;2023-12-20T06:15:46;5.90;99.90
23540;DHT22;11947;50.810;4.394;2023-12-20T06:18:12;5.90;99.90
23540;DHT22;11947;50.810;4.394;2023-12-20T06:20:37;6.00;99.90
23540;DHT22;11947;50.810;4.394;2023-12-20T06:23:03;6.00;99.90
23540;DHT22;11947;50.810;4.394;2023-12-20T06:25:29;5.90;99.90
23540;DHT22;11947;50.810;4.394;2023-12-20T06:27:54;5.90;99.90
23540;DHT22;11947;50.810;4.394;2023-12-20T06:30:20;5.90;99.90
23540;DHT22;11947;50.810;4.394;2023-12-20T06:32:46;6.00;99.90
23540;DHT22;11947;50.810;4.394;2023-12-20T06:35:12;6.00;99.90
23540;DHT22;11947;50.810;4.394;2023-12-20T06:37:38;6.10;99.90
23540;DHT22;11947;50.810;4.394;2023-12-20T06:40:09;6.10;99.90
23540;DHT22;11947;50.810;4.394;2023-12-20T06:42:35;6.10;99.90
23540;DHT22;11947;50.810;4.394;2023-12-20T06:45:00;6.20;99.90
23540;DHT22;11947;50.810;4.394;2023-12-20T06:47:26;6.00;99.90
23540;DHT22;11947;50.810;4.394;2023-12-20T06:49:52;6.10;99.90
23540;DHT22;11947;50.810;4.394;2023-12-20T06:52:17;6.00;99.90
23540;DHT22;11947;50.810;4.394;2023-12-20T06:54:43;6.00;99.90
23540;DHT22;11947;50.810;4.394;2023-12-20T06:57:09;6.00;99.90
23540;DHT22;11947;50.810;4.394;2023-12-20T06:59:41;5.90;99.90
23540;DHT22;11947;50.810;4.394;2023-12-20T07:02:07;5.70;99.90
23540;DHT22;11947;50.810;4.394;2023-12-20T07:04:33;5.80;99.90
23540;DHT22;11947;50.810;4.394;2023-12-20T07:06:59;5.70;99.90
23540;DHT22;11947;50.810;4.394;2023-12-20T07:09:28;5.60;99.90
23540;DHT22;11947;50.810;4.394;2023-12-20T07:11:54;5.50;99.90
23540;DHT22;11947;50.810;4.394;2023-12-20T07:14:20;5.50;99.90
23540;DHT22;11947;50.810;4.394;2023-12-20T07:16:45;5.50;99.90
23540;DHT22;11947;50.810;4.394;2023-12-20T07:19:11;5.60;99.90
23540;DHT22;11947;50.810;4.394;2023-12-20T07:21:38;5.50;99.90
23540;DHT22;11947;50.810;4.394;2023-12-20T07:24:03;5.40;99.90
23540;DHT22;11947;50.810;4.394;2023-12-20T07:26:29;5.40;99.90
23540;DHT22;11947;50.810;4.394;2023-12-20T07:28:54;5.50;99.90
23540;DHT22;11947;50.810;4.394;2023-12-20T07:31:20;5.50;99.90
23540;DHT22;11947;50.810;4.394;2023-12-20T07:33:46;5.60;99.90
23540;DHT22;11947;50.810;4.394;2023-12-20T07:36:13;5.60;99.90
23540;DHT22;11947;50.810;4.394;2023-12-20T07:38:38;5.50;99.90
23540;DHT22;11947;50.810;4.394;2023-12-20T07:41:04;5.50;99.90
23540;DHT22;11947;50.810;4.394;2023-12-20T07:43:30;5.40;99.90
23540;DHT22;11947;50.810;4.394;2023-12-20T07:45:56;5.40;99.90
23540;DHT22;11947;50.810;4.394;2023-12-20T07:48:22;5.30;99.90
23540;DHT22;11947;50.810;4.394;2023-12-20T07:50:47;5.40;99.90
23540;DHT22;11947;50.810;4.394;2023-12-20T07:53:13;5.30;99.90
23540;DHT22;11947;50.810;4.394;2023-12-20T07:55:39;5.50;99.90
23540;DHT22;11947;50.810;4.394;2023-12-20T07:58:05;5.40;99.90
23540;DHT22;11947;50.810;4.394;2023-12-20T08:00:30;5.40;99.90
23540;DHT22;11947;50.810;4.394;2023-12-20T08:02:56;5.30;99.90
23540;DHT22;11947;50.810;4.394;2023-12-20T08:05:22;5.40;99.90
23540;DHT22;11947;50.810;4.394;2023-12-20T08:07:47;5.50;99.90
23540;DHT22;11947;50.810;4.394;2023-12-20T08:10:13;5.40;99.90
23540;DHT22;11947;50.810;4.394;2023-12-20T08:12:39;5.50;99.90
23540;DHT22;11947;50.810;4.394;2023-12-20T08:15:05;5.50;99.90
23540;DHT22;11947;50.810;4.394;2023-12-20T08:17:31;5.50;99.90
23540;DHT22;11947;50.810;4.394;2023-12-20T08:19:57;5.60;99.90
23540;DHT22;11947;50.810;4.394;2023-12-20T08:22:22;5.60;99.90
23540;DHT22;11947;50.810;4.394;2023-12-20T08:24:48;5.60;99.90
23540;DHT22;11947;50.810;4.394;2023-12-20T08:27:14;5.50;99.90
23540;DHT22;11947;50.810;4.394;2023-12-20T08:29:40;5.50;99.90
23540;DHT22;11947;50.810;4.394;2023-12-20T08:32:05;5.60;99.90
23540;DHT22;11947;50.810;4.394;2023-12-20T08:34:31;5.70;99.90
23540;DHT22;11947;50.810;4.394;2023-12-20T08:36:57;5.80;99.90
23540;DHT22;11947;50.810;4.394;2023-12-20T08:39:22;5.70;99.90
23540;DHT22;11947;50.810;4.394;2023-12-20T08:41:48;5.70;99.90
23540;DHT22;11947;50.810;4.394;2023-12-20T08:44:14;5.70;99.90
23540;DHT22;11947;50.810;4.394;2023-12-20T08:46:39;5.70;99.90
23540;DHT22;11947;50.810;4.394;2023-12-20T08:49:05;5.80;99.90
23540;DHT22;11947;50.810;4.394;2023-12-20T08:51:31;5.80;99.90
23540;DHT22;11947;50.810;4.394;2023-12-20T08:53:56;5.90;99.90
23540;DHT22;11947;50.810;4.394;2023-12-20T08:56:22;5.90;99.90
23540;DHT22;11947;50.810;4.394;2023-12-20T08:58:47;5.90;99.90
23540;DHT22;11947;50.810;4.394;2023-12-20T09:01:14;5.90;99.90
23540;DHT22;11947;50.810;4.394;2023-12-20T09:03:40;5.80;99.90
23540;DHT22;11947;50.810;4.394;2023-12-20T09:06:06;5.80;99.90
23540;DHT22;11947;50.810;4.394;2023-12-20T09:08:32;5.80;99.90
23540;DHT22;11947;50.810;4.394;2023-12-20T09:10:58;5.70;99.90
23540;DHT22;11947;50.810;4.394;2023-12-20T09:13:24;5.70;99.90
23540;DHT22;11947;50.810;4.394;2023-12-20T09:15:57;5.80;99.90
23540;DHT22;11947;50.810;4.394;2023-12-20T09:18:23;5.80;99.90
23540;DHT22;11947;50.810;4.394;2023-12-20T09:20:49;5.90;99.90
23540;DHT22;11947;50.810;4.394;2023-12-20T09:23:15;6.10;99.90
23540;DHT22;11947;50.810;4.394;2023-12-20T09:25:40;6.20;99.90
23540;DHT22;11947;50.810;4.394;2023-12-20T09:28:06;6.10;99.90
23540;DHT22;11947;50.810;4.394;2023-12-20T09:30:32;6.20;99.90
23540;DHT22;11947;50.810;4.394;2023-12-20T09:32:57;6.20;99.90
23540;DHT22;11947;50.810;4.394;2023-12-20T09:35:23;6.20;99.90
23540;DHT22;11947;50.810;4.394;2023-12-20T09:37:49;6.40;99.90
23540;DHT22;11947;50.810;4.394;2023-12-20T09:40:18;6.40;99.90
23540;DHT22;11947;50.810;4.394;2023-12-20T09:43:09;6.50;99.90
23540;DHT22;11947;50.810;4.394;2023-12-20T09:45:35;6.70;99.90
23540;DHT22;11947;50.810;4.394;2023-12-20T09:48:01;6.80;99.90
23540;DHT22;11947;50.810;4.394;2023-12-20T09:50:30;6.80;99.90
23540;DHT22;11947;50.810;4.394;2023-12-20T09:52:58;6.90;99.90
23540;DHT22;11947;50.810;4.394;2023-12-20T09:55:27;6.80;99.90
23540;DHT22;11947;50.810;4.394;2023-12-20T09:57:53;7.10;99.90
23540;DHT22;11947;50.810;4.394;2023-12-20T10:00:19;7.30;99.90
23540;DHT22;11947;50.810;4.394;2023-12-20T10:02:50;7.30;99.90
23540;DHT22;11947;50.810;4.394;2023-12-20T10:05:18;7.40;99.90
23540;DHT22;11947;50.810;4.394;2023-12-20T10:07:47;7.50;99.90
23540;DHT22;11947;50.810;4.394;2023-12-20T10:10:16;7.50;99.90
23540;DHT22;11947;50.810;4.394;2023-12-20T10:13:07;7.60;99.90
23540;DHT22;11947;50.810;4.394;2023-12-20T10:15:36;7.60;99.90
23540;DHT22;11947;50.810;4.394;2023-12-20T10:18:03;7.70;99.90
23540;DHT22;11947;50.810;4.394;2023-12-20T10:20:29;7.60;99.90
23540;DHT22;11947;50.810;4.394;2023-12-20T10:22:56;7.60;99.90
23540;DHT22;11947;50.810;4.394;2023-12-20T10:25:22;7.70;99.90
23540;DHT22;11947;50.810;4.394;2023-12-20T10:27:49;7.90;99.90
23540;DHT22;11947;50.810;4.394;2023-12-20T10:30:15;7.80;99.90
23540;DHT22;11947;50.810;4.394;2023-12-20T10:32:41;7.90;99.90
23540;DHT22;11947;50.810;4.394;2023-12-20T10:35:08;8.00;99.90
23540;DHT22;11947;50.810;4.394;2023-12-20T10:37:40;8.00;99.90
23540;DHT22;11947;50.810;4.394;2023-12-20T10:40:06;8.20;99.90
23540;DHT22;11947;50.810;4.394;2023-12-20T10:42:32;8.10;99.90
23540;DHT22;11947;50.810;4.394;2023-12-20T10:45:01;8.20;99.90
23540;DHT22;11947;50.810;4.394;2023-12-20T10:47:28;8.20;99.90
23540;DHT22;11947;50.810;4.394;2023-12-20T10:49:55;8.10;99.90
23540;DHT22;11947;50.810;4.394;2023-12-20T10:52:23;8.00;99.90
23540;DHT22;11947;50.810;4.394;2023-12-20T10:54:50;8.00;99.90
23540;DHT22;11947;50.810;4.394;2023-12-20T10:57:18;8.00;99.90
23540;DHT22;11947;50.810;4.394;2023-12-20T10:59:45;8.10;99.90
23540;DHT22;11947;50.810;4.394;2023-12-20T11:02:14;8.20;99.90
23540;DHT22;11947;50.810;4.394;2023-12-20T11:05:10;8.20;99.90
23540;DHT22;11947;50.810;4.394;2023-12-20T11:07:48;8.40;99.90
23540;DHT22;11947;50.810;4.394;2023-12-20T11:12:52;8.30;99.90
23540;DHT22;11947;50.810;4.394;2023-12-20T11:15:19;8.40;99.90
23540;DHT22;11947;50.810;4.394;2023-12-20T11:17:45;8.40;99.90
23540;DHT22;11947;50.810;4.394;2023-12-20T11:20:12;8.40;99.90
23540;DHT22;11947;50.810;4.394;2023-12-20T11:22:40;8.50;99.90
23540;DHT22;11947;50.810;4.394;2023-12-20T11:25:16;8.50;99.90
23540;DHT22;11947;50.810;4.394;2023-12-20T11:27:42;8.30;99.90
23540;DHT22;11947;50.810;4.394;2023-12-20T11:30:09;8.30;99.90
23540;DHT22;11947;50.810;4.394;2023-12-20T11:32:36;8.20;99.90
23540;DHT22;11947;50.810;4.394;2023-12-20T11:37:37;8.20;99.90
23540;DHT22;11947;50.810;4.394;2023-12-20T11:40:06;8.10;99.90
23540;DHT22;11947;50.810;4.394;2023-12-20T11:42:41;8.10;99.90
23540;DHT22;11947;50.810;4.394;2023-12-20T11:45:27;8.10;99.90
23540;DHT22;11947;50.810;4.394;2023-12-20T11:47:53;8.10;99.90
23540;DHT22;11947;50.810;4.394;2023-12-20T11:50:21;8.20;99.90
23540;DHT22;11947;50.810;4.394;2023-12-20T11:52:48;8.10;99.90
23540;DHT22;11947;50.810;4.394;2023-12-20T11:55:13;8.10;99.90
23540;DHT22;11947;50.810;4.394;2023-12-20T11:57:40;8.20;99.90
23540;DHT22;11947;50.810;4.394;2023-12-20T12:00:06;8.10;99.90
23540;DHT22;11947;50.810;4.394;2023-12-20T12:02:32;8.10;99.90
23540;DHT22;11947;50.810;4.394;2023-12-20T12:04:59;8.30;99.90
23540;DHT22;11947;50.810;4.394;2023-12-20T12:07:25;8.30;99.90
23540;DHT22;11947;50.810;4.394;2023-12-20T12:09:51;8.40;99.90
23540;DHT22;11947;50.810;4.394;2023-12-20T12:12:17;8.30;99.90
23540;DHT22;11947;50.810;4.394;2023-12-20T12:14:45;8.30;99.90
23540;DHT22;11947;50.810;4.394;2023-12-20T12:17:14;8.40;99.90
23540;DHT22;11947;50.810;4.394;2023-12-20T12:19:41;8.40;99.90
23540;DHT22;11947;50.810;4.394;2023-12-20T12:22:13;8.40;99.90
23540;DHT22;11947;50.810;4.394;2023-12-20T12:24:48;8.30;99.90
23540;DHT22;11947;50.810;4.394;2023-12-20T12:27:15;8.30;99.90
23540;DHT22;11947;50.810;4.394;2023-12-20T12:29:42;8.30;99.90
23540;DHT22;11947;50.810;4.394;2023-12-20T12:32:25;8.30;99.90
23540;DHT22;11947;50.810;4.394;2023-12-20T12:34:51;8.30;99.90
23540;DHT22;11947;50.810;4.394;2023-12-20T12:37:17;8.20;99.90
23540;DHT22;11947;50.810;4.394;2023-12-20T12:39:42;8.30;99.90
23540;DHT22;11947;50.810;4.394;2023-12-20T12:42:08;8.40;99.90
23540;DHT22;11947;50.810;4.394;2023-12-20T12:44:33;8.40;99.90
23540;DHT22;11947;50.810;4.394;2023-12-20T12:46:59;8.40;99.90
23540;DHT22;11947;50.810;4.394;2023-12-20T12:49:25;8.60;99.90
23540;DHT22;11947;50.810;4.394;2023-12-20T12:51:51;8.40;99.90
23540;DHT22;11947;50.810;4.394;2023-12-20T12:54:16;8.40;99.90
23540;DHT22;11947;50.810;4.394;2023-12-20T12:56:43;8.50;99.90
23540;DHT22;11947;50.810;4.394;2023-12-20T12:59:09;8.50;99.90
23540;DHT22;11947;50.810;4.394;2023-12-20T13:01:35;8.30;99.90
23540;DHT22;11947;50.810;4.394;2023-12-20T13:04:01;8.40;99.90
23540;DHT22;11947;50.810;4.394;2023-12-20T13:06:32;8.50;99.90
23540;DHT22;11947;50.810;4.394;2023-12-20T13:08:58;8.50;99.90
23540;DHT22;11947;50.810;4.394;2023-12-20T13:11:23;8.60;99.90
23540;DHT22;11947;50.810;4.394;2023-12-20T13:13:50;8.50;99.90
23540;DHT22;11947;50.810;4.394;2023-12-20T13:16:16;8.60;99.90
23540;DHT22;11947;50.810;4.394;2023-12-20T13:18:41;8.60;99.90
23540;DHT22;11947;50.810;4.394;2023-12-20T13:21:08;8.60;99.90
23540;DHT22;11947;50.810;4.394;2023-12-20T13:23:34;8.60;99.90
23540;DHT22;11947;50.810;4.394;2023-12-20T13:26:00;8.60;99.90
23540;DHT22;11947;50.810;4.394;2023-12-20T13:28:26;8.60;99.90
23540;DHT22;11947;50.810;4.394;2023-12-20T13:30:51;8.70;99.90
23540;DHT22;11947;50.810;4.394;2023-12-20T13:33:17;8.70;99.90
23540;DHT22;11947;50.810;4.394;2023-12-20T13:35:43;8.70;99.90
23540;DHT22;11947;50.810;4.394;2023-12-20T13:38:12;8.70;99.90
23540;DHT22;11947;50.810;4.394;2023-12-20T13:40:38;8.70;99.90
23540;DHT22;11947;50.810;4.394;2023-12-20T13:43:04;8.70;99.90
23540;DHT22;11947;50.810;4.394;2023-12-20T13:45:29;8.90;99.90
23540;DHT22;11947;50.810;4.394;2023-12-20T13:47:55;8.80;99.90
23540;DHT22;11947;50.810;4.394;2023-12-20T13:50:21;8.80;99.90
23540;DHT22;11947;50.810;4.394;2023-12-20T13:52:47;8.90;99.90
23540;DHT22;11947;50.810;4.394;2023-12-20T13:55:13;8.90;99.90
23540;DHT22;11947;50.810;4.394;2023-12-20T13:57:38;8.80;99.90
23540;DHT22;11947;50.810;4.394;2023-12-20T14:00:06;8.90;99.90
23540;DHT22;11947;50.810;4.394;2023-12-20T14:02:38;8.90;99.90
23540;DHT22;11947;50.810;4.394;2023-12-20T14:05:04;8.90;99.90
23540;DHT22;11947;50.810;4.394;2023-12-20T14:07:31;8.80;99.90
23540;DHT22;11947;50.810;4.394;2023-12-20T14:09:57;8.80;99.90
23540;DHT22;11947;50.810;4.394;2023-12-20T14:12:25;8.90;99.90
23540;DHT22;11947;50.810;4.394;2023-12-20T14:14:50;8.80;99.90
23540;DHT22;11947;50.810;4.394;2023-12-20T14:17:17;8.80;99.90
23540;DHT22;11947;50.810;4.394;2023-12-20T14:19:43;8.90;99.90
23540;DHT22;11947;50.810;4.394;2023-12-20T14:22:09;8.90;99.90
23540;DHT22;11947;50.810;4.394;2023-12-20T14:24:35;8.90;99.90
23540;DHT22;11947;50.810;4.394;2023-12-20T14:27:01;8.90;99.90
23540;DHT22;11947;50.810;4.394;2023-12-20T14:29:27;8.90;99.90
23540;DHT22;11947;50.810;4.394;2023-12-20T14:31:53;9.00;99.90
23540;DHT22;11947;50.810;4.394;2023-12-20T14:34:18;9.10;99.90
23540;DHT22;11947;50.810;4.394;2023-12-20T14:36:44;9.00;99.90
23540;DHT22;11947;50.810;4.394;2023-12-20T14:39:09;9.00;99.90
23540;DHT22;11947;50.810;4.394;2023-12-20T14:41:38;9.10;99.90
23540;DHT22;11947;50.810;4.394;2023-12-20T14:44:05;9.00;99.90
23540;DHT22;11947;50.810;4.394;2023-12-20T14:46:31;9.10;99.90
23540;DHT22;11947;50.810;4.394;2023-12-20T14:48:56;9.20;99.90
23540;DHT22;11947;50.810;4.394;2023-12-20T14:51:22;9.30;99.90
23540;DHT22;11947;50.810;4.394;2023-12-20T14:53:48;9.20;99.90
23540;DHT22;11947;50.810;4.394;2023-12-20T14:56:14;9.10;99.90
23540;DHT22;11947;50.810;4.394;2023-12-20T14:58:40;9.10;99.90
23540;DHT22;11947;50.810;4.394;2023-12-20T15:01:06;9.10;99.90
23540;DHT22;11947;50.810;4.394;2023-12-20T15:03:34;9.10;99.90
23540;DHT22;11947;50.810;4.394;2023-12-20T15:06:00;9.10;99.90
23540;DHT22;11947;50.810;4.394;2023-12-20T15:08:26;9.10;99.90
23540;DHT22;11947;50.810;4.394;2023-12-20T15:10:52;9.10;99.90
23540;DHT22;11947;50.810;4.394;2023-12-20T15:13:17;9.20;99.90
23540;DHT22;11947;50.810;4.394;2023-12-20T15:15:43;9.20;99.90
23540;DHT22;11947;50.810;4.394;2023-12-20T15:18:09;9.10;99.90
23540;DHT22;11947;50.810;4.394;2023-12-20T15:20:35;9.10;99.90
23540;DHT22;11947;50.810;4.394;2023-12-20T15:23:02;9.20;99.90
23540;DHT22;11947;50.810;4.394;2023-12-20T15:25:32;9.20;99.90
23540;DHT22;11947;50.810;4.394;2023-12-20T15:27:57;9.10;99.90
23540;DHT22;11947;50.810;4.394;2023-12-20T15:30:23;9.10;99.90
23540;DHT22;11947;50.810;4.394;2023-12-20T15:32:50;9.20;99.90
23540;DHT22;11947;50.810;4.394;2023-12-20T15:35:15;9.20;99.90
23540;DHT22;11947;50.810;4.394;2023-12-20T15:37:41;9.10;99.90
23540;DHT22;11947;50.810;4.394;2023-12-20T15:40:10;9.20;99.90
23540;DHT22;11947;50.810;4.394;2023-12-20T15:42:37;9.20;99.90
23540;DHT22;11947;50.810;4.394;2023-12-20T15:45:04;9.30;99.90
23540;DHT22;11947;50.810;4.394;2023-12-20T15:47:30;9.20;99.90